createdAt,value
2023-02-27T00:02:22.151Z,57.40
2023-02-27T00:05:07.383Z,57.41
2023-02-27T00:07:51.539Z,57.51
2023-02-27T00:10:36.720Z,57.48
2023-02-27T00:13:20.761Z,57.67
2023-02-27T00:16:05.184Z,57.49
2023-02-27T00:18:49.002Z,58.18
2023-02-27T00:21:34.758Z,58.38
2023-02-27T00:24:22.524Z,58.48
2023-02-27T00:27:07.666Z,58.51
2023-02-27T00:29:51.545Z,58.33
2023-02-27T00:32:36.854Z,58.30
2023-02-27T00:35:21.553Z,57.29
2023-02-27T00:38:05.381Z,56.98
2023-02-27T00:40:49.247Z,57.41
2023-02-27T00:43:34.453Z,57.29
2023-02-27T00:46:19.803Z,56.95
2023-02-27T00:49:03.978Z,56.55
2023-02-27T00:51:47.911Z,57.12
2023-02-27T00:54:31.635Z,57.19
2023-02-27T00:57:15.526Z,56.85
2023-02-27T01:00:00.766Z,56.61
2023-02-27T01:02:44.559Z,57.36
2023-02-27T01:05:28.681Z,56.65
2023-02-27T01:08:12.531Z,56.37
2023-02-27T01:10:56.932Z,56.77
2023-02-27T01:13:40.812Z,56.89
2023-02-27T01:16:26.039Z,57.20
2023-02-27T01:19:09.943Z,57.52
2023-02-27T01:21:54.487Z,57.74
2023-02-27T01:24:38.502Z,57.98
2023-02-27T01:27:22.301Z,58.31
2023-02-27T01:30:07.279Z,57.68
2023-02-27T01:32:52.432Z,57.98
2023-02-27T01:35:36.694Z,57.62
2023-02-27T01:38:20.497Z,57.83
2023-02-27T01:41:06.318Z,57.43
2023-02-27T01:43:59.907Z,57.42
2023-02-27T01:46:44.233Z,57.55
2023-02-27T01:49:34.474Z,57.59
2023-02-27T01:52:19.437Z,57.56
2023-02-27T01:55:04.661Z,57.57
2023-02-27T01:57:50.596Z,57.17
2023-02-27T02:00:34.365Z,57.17
2023-02-27T02:03:24.814Z,57.24
2023-02-27T02:06:10.371Z,57.12
2023-02-27T02:08:56.837Z,57.21
2023-02-27T02:11:40.859Z,57.26
2023-02-27T02:14:24.876Z,57.81
2023-02-27T02:17:19.204Z,58.30
2023-02-27T02:20:32.825Z,58.38
2023-02-27T02:24:00.326Z,58.01
2023-02-27T02:27:05.945Z,58.36
2023-02-27T02:30:22.484Z,58.06
2023-02-27T02:33:44.761Z,58.72
2023-02-27T02:37:07.262Z,58.29
2023-02-27T02:40:02.386Z,58.06
2023-02-27T02:42:57.426Z,59.38
2023-02-27T02:45:49.751Z,59.58
2023-02-27T02:48:41.280Z,59.63
2023-02-27T02:51:34.393Z,59.89
2023-02-27T02:54:22.958Z,59.77
2023-02-27T02:57:13.335Z,60.39
2023-02-27T03:00:06.518Z,60.37
2023-02-27T03:02:55.839Z,60.34
2023-02-27T03:05:47.910Z,60.11
2023-02-27T03:08:39.014Z,60.79
2023-02-27T03:11:27.847Z,60.01
2023-02-27T03:14:20.500Z,59.74
2023-02-27T03:17:09.075Z,60.70
2023-02-27T03:19:59.013Z,60.63
2023-02-27T03:22:48.537Z,60.77
2023-02-27T03:25:34.371Z,60.47
2023-02-27T03:28:23.882Z,60.18
2023-02-27T03:31:20.402Z,60.29
2023-02-27T03:34:12.678Z,60.17
2023-02-27T03:37:04.504Z,59.76
2023-02-27T03:39:51.045Z,59.87
2023-02-27T03:42:41.802Z,60.22
2023-02-27T03:45:41.505Z,59.99
2023-02-27T03:48:27.198Z,59.49
2023-02-27T03:51:13.072Z,59.43
2023-02-27T03:54:02.732Z,59.57
2023-02-27T03:56:52.311Z,59.23
2023-02-27T03:59:38.726Z,59.45
2023-02-27T04:02:24.596Z,59.31
2023-02-27T04:05:11.000Z,60.17
2023-02-27T04:08:53.971Z,59.95
2023-02-27T04:11:55.103Z,59.60
2023-02-27T04:14:51.033Z,59.72
2023-02-27T04:17:41.434Z,59.71
2023-02-27T04:20:43.085Z,60.09
2023-02-27T04:23:36.631Z,59.72
2023-02-27T04:26:28.945Z,59.20
2023-02-27T04:29:18.637Z,58.77
2023-02-27T04:32:07.671Z,58.49
2023-02-27T04:34:56.613Z,58.99
2023-02-27T04:37:48.652Z,59.64
2023-02-27T04:40:37.900Z,59.20
2023-02-27T04:43:23.641Z,59.39
2023-02-27T04:46:10.132Z,59.19
2023-02-27T04:49:00.267Z,59.15
2023-02-27T04:51:51.962Z,58.49
2023-02-27T04:54:42.544Z,59.23
2023-02-27T04:57:32.016Z,59.73
2023-02-27T05:00:17.881Z,58.66
2023-02-27T05:03:07.055Z,58.75
2023-02-27T05:05:54.670Z,58.70
2023-02-27T05:08:44.400Z,58.51
2023-02-27T05:11:34.393Z,58.83
2023-02-27T05:14:21.785Z,58.77
2023-02-27T05:17:09.619Z,58.71
2023-02-27T05:19:53.826Z,58.26
2023-02-27T05:22:46.525Z,58.10
2023-02-27T05:25:36.688Z,58.02
2023-02-27T05:28:25.746Z,58.18
2023-02-27T05:31:18.754Z,58.06
2023-02-27T05:34:09.578Z,57.27
2023-02-27T05:36:58.557Z,56.88
2023-02-27T05:39:45.028Z,56.73
2023-02-27T05:42:35.658Z,56.00
2023-02-27T05:45:24.039Z,56.82
2023-02-27T05:48:13.401Z,57.34
2023-02-27T05:50:58.769Z,56.91
2023-02-27T05:53:47.302Z,56.03
2023-02-27T05:56:34.546Z,56.54
2023-02-27T05:59:25.613Z,56.29
2023-02-27T06:02:11.769Z,55.85
2023-02-27T06:04:56.475Z,56.09
2023-02-27T06:07:40.377Z,56.18
2023-02-27T06:10:24.729Z,56.05
2023-02-27T06:13:08.456Z,55.82
2023-02-27T06:15:52.483Z,55.31
2023-02-27T06:18:37.772Z,55.37
2023-02-27T06:21:21.636Z,55.18
2023-02-27T06:24:05.636Z,54.89
2023-02-27T06:26:49.459Z,54.79
2023-02-27T06:29:33.239Z,54.81
2023-02-27T06:32:17.175Z,54.20
2023-02-27T06:35:02.366Z,54.47
2023-02-27T06:37:47.324Z,54.76
2023-02-27T06:40:31.293Z,54.95
2023-02-27T06:43:15.980Z,54.92
2023-02-27T06:45:59.823Z,54.42
2023-02-27T06:48:43.657Z,54.92
2023-02-27T06:51:29.113Z,55.57
2023-02-27T06:54:12.968Z,55.53
2023-02-27T06:56:56.737Z,55.54
2023-02-27T06:59:40.617Z,55.36
2023-02-27T07:02:25.725Z,56.53
2023-02-27T07:05:11.706Z,57.04
2023-02-27T07:07:58.623Z,57.14
2023-02-27T07:10:44.134Z,57.43
2023-02-27T07:13:28.095Z,57.02
2023-02-27T07:16:12.180Z,56.60
2023-02-27T07:18:56.145Z,56.66
2023-02-27T07:21:40.349Z,56.36
2023-02-27T07:24:25.647Z,55.69
2023-02-27T07:27:09.551Z,55.21
2023-02-27T07:29:54.099Z,55.33
2023-02-27T07:32:37.994Z,54.79
2023-02-27T07:35:21.890Z,54.90
2023-02-27T07:38:05.973Z,54.94
2023-02-27T07:40:51.229Z,54.51
2023-02-27T07:43:35.059Z,53.95
2023-02-27T07:46:18.985Z,54.84
2023-02-27T07:49:03.090Z,54.93
2023-02-27T07:51:47.047Z,55.57
2023-02-27T07:54:31.171Z,56.47
2023-02-27T07:57:17.033Z,56.33
2023-02-27T08:00:00.966Z,56.25
2023-02-27T08:02:45.092Z,58.00
2023-02-27T08:05:28.877Z,56.69
2023-02-27T08:08:12.993Z,56.21
2023-02-27T08:10:57.038Z,56.14
2023-02-27T08:13:59.429Z,56.17
2023-02-27T08:16:44.303Z,56.89
2023-02-27T08:19:28.144Z,56.31
2023-02-27T08:22:12.497Z,56.62
2023-02-27T08:24:56.437Z,55.49
2023-02-27T08:27:40.444Z,55.41
2023-02-27T08:30:25.844Z,55.39
2023-02-27T08:33:09.946Z,52.30
2023-02-27T08:35:55.761Z,52.46
2023-02-27T08:38:39.713Z,52.65
2023-02-27T08:41:23.723Z,51.89
2023-02-27T08:44:07.594Z,52.20
2023-02-27T08:46:52.963Z,52.34
2023-02-27T08:49:36.792Z,52.84
2023-02-27T08:52:21.116Z,53.60
2023-02-27T08:55:06.732Z,53.14
2023-02-27T08:57:50.502Z,51.48
2023-02-27T09:00:34.619Z,49.97
2023-02-27T09:03:20.305Z,49.33
2023-02-27T09:06:05.349Z,50.96
2023-02-27T09:08:49.137Z,50.23
2023-02-27T09:11:33.044Z,49.84
2023-02-27T09:14:16.875Z,49.27
2023-02-27T09:17:00.930Z,48.06
2023-02-27T09:19:46.490Z,47.99
2023-02-27T09:22:30.488Z,47.28
2023-02-27T09:25:14.600Z,48.02
2023-02-27T09:27:59.624Z,48.52
2023-02-27T09:30:43.805Z,48.11
2023-02-27T09:33:29.310Z,48.48
2023-02-27T09:36:15.028Z,48.53
2023-02-27T09:39:00.001Z,48.73
2023-02-27T09:41:53.776Z,48.37
2023-02-27T09:44:47.048Z,47.49
2023-02-27T09:47:37.216Z,48.00
2023-02-27T09:50:38.903Z,47.27
2023-02-27T09:53:28.063Z,47.69
2023-02-27T09:56:21.499Z,48.89
2023-02-27T09:59:13.582Z,48.75
2023-02-27T10:02:06.219Z,48.20
2023-02-27T10:04:55.739Z,48.78
2023-02-27T10:07:45.436Z,47.73
2023-02-27T10:10:39.301Z,47.04
2023-02-27T10:13:35.223Z,48.35
2023-02-27T10:16:21.569Z,47.02
2023-02-27T10:19:14.823Z,46.42
2023-02-27T10:22:01.227Z,47.54
2023-02-27T10:24:49.304Z,46.85
2023-02-27T10:27:35.471Z,47.51
2023-02-27T10:30:29.490Z,47.46
2023-02-27T10:33:20.795Z,47.89
2023-02-27T10:36:17.889Z,48.82
2023-02-27T10:39:11.832Z,48.46
2023-02-27T10:41:57.550Z,47.99
2023-02-27T10:44:42.883Z,48.54
2023-02-27T10:47:27.660Z,47.32
2023-02-27T10:50:23.030Z,46.13
2023-02-27T10:53:18.048Z,47.13
2023-02-27T10:56:04.170Z,47.51
2023-02-27T10:58:48.220Z,46.97
2023-02-27T11:01:45.435Z,45.98
2023-02-27T11:04:34.032Z,46.14
2023-02-27T11:07:29.228Z,47.10
2023-02-27T11:10:21.245Z,45.97
2023-02-27T11:13:06.801Z,45.83
2023-02-27T11:16:04.647Z,46.76
2023-02-27T11:18:51.023Z,46.59
2023-02-27T11:21:34.786Z,45.94
2023-02-27T11:24:21.210Z,45.88
2023-02-27T11:27:18.240Z,45.42
2023-02-27T11:30:05.532Z,45.85
2023-02-27T11:32:51.499Z,45.65
2023-02-27T11:35:39.875Z,45.96
2023-02-27T11:38:25.651Z,45.90
2023-02-27T11:41:11.161Z,46.03
2023-02-27T11:43:56.105Z,45.21
2023-02-27T11:46:47.529Z,45.38
2023-02-27T11:49:40.127Z,44.58
2023-02-27T11:52:35.641Z,46.46
2023-02-27T11:55:24.135Z,45.17
2023-02-27T11:58:14.566Z,45.38
2023-02-27T12:01:04.035Z,44.87
2023-02-27T12:03:53.578Z,45.32
2023-02-27T12:06:41.584Z,44.30
2023-02-27T12:09:36.852Z,43.88
2023-02-27T12:12:25.754Z,43.15
2023-02-27T12:15:26.126Z,42.81
2023-02-27T12:18:17.432Z,43.67
2023-02-27T12:21:07.463Z,44.29
2023-02-27T12:23:56.934Z,43.87
2023-02-27T12:26:44.950Z,43.56
2023-02-27T12:29:34.255Z,43.71
2023-02-27T12:32:24.397Z,43.50
2023-02-27T12:35:15.445Z,42.98
2023-02-27T12:37:59.681Z,42.92
2023-02-27T12:40:48.076Z,42.66
2023-02-27T12:43:44.439Z,42.57
2023-02-27T12:46:40.020Z,42.91
2023-02-27T12:49:35.059Z,43.81
2023-02-27T12:52:31.017Z,42.88
2023-02-27T12:55:19.023Z,42.35
2023-02-27T12:58:28.624Z,43.16
2023-02-27T13:01:26.684Z,42.70
2023-02-27T13:04:23.035Z,42.41
2023-02-27T13:07:14.799Z,42.32
2023-02-27T13:10:01.290Z,43.41
2023-02-27T13:12:52.306Z,43.59
2023-02-27T13:15:42.137Z,42.41
2023-02-27T13:18:41.544Z,42.68
2023-02-27T13:21:32.253Z,43.15
2023-02-27T13:24:34.830Z,44.80
2023-02-27T13:27:25.129Z,45.47
2023-02-27T13:30:15.266Z,46.31
2023-02-27T13:33:07.273Z,47.56
2023-02-27T13:36:00.567Z,47.43
2023-02-27T13:38:46.579Z,47.52
2023-02-27T13:41:42.054Z,47.29
2023-02-27T13:44:50.916Z,47.42
2023-02-27T13:47:48.037Z,47.15
2023-02-27T13:50:53.761Z,47.72
2023-02-27T13:53:38.400Z,47.78
2023-02-27T13:56:23.726Z,48.32
2023-02-27T13:59:15.150Z,48.68
2023-02-27T14:02:01.661Z,48.34
2023-02-27T14:04:51.382Z,48.67
2023-02-27T14:07:54.315Z,48.95
2023-02-27T14:10:40.464Z,49.18
2023-02-27T14:14:00.059Z,49.55
2023-02-27T14:17:01.023Z,49.45
2023-02-27T14:19:59.558Z,49.13
2023-02-27T14:23:16.532Z,49.52
2023-02-27T14:26:07.260Z,49.98
2023-02-27T14:28:55.891Z,49.78
2023-02-27T14:31:41.935Z,50.32
2023-02-27T14:34:26.280Z,50.32
2023-02-27T14:37:17.315Z,50.52
2023-02-27T14:40:06.169Z,50.61
2023-02-27T14:42:58.326Z,51.14
2023-02-27T14:45:42.303Z,50.86
2023-02-27T14:48:29.945Z,51.39
2023-02-27T14:51:13.997Z,51.11
2023-02-27T14:54:02.919Z,51.55
2023-02-27T14:56:57.385Z,51.29
2023-02-27T14:59:45.190Z,52.13
2023-02-27T15:02:31.792Z,52.92
2023-02-27T15:05:22.012Z,54.60
2023-02-27T15:08:06.071Z,55.61
2023-02-27T15:10:50.083Z,55.68
2023-02-27T15:13:39.038Z,56.67
2023-02-27T15:16:32.457Z,57.50
2023-02-27T15:19:19.909Z,60.47
2023-02-27T15:22:16.122Z,65.29
2023-02-27T15:25:03.064Z,68.40
2023-02-27T15:27:47.404Z,69.73
2023-02-27T15:30:32.741Z,70.42
2023-02-27T15:33:17.674Z,71.29
2023-02-27T15:36:02.730Z,73.53
2023-02-27T15:38:46.683Z,73.81
2023-02-27T15:41:30.891Z,71.39
2023-02-27T15:44:16.557Z,71.27
2023-02-27T15:47:01.824Z,70.48
2023-02-27T15:49:45.822Z,70.22
2023-02-27T15:52:39.733Z,70.03
2023-02-27T15:55:26.163Z,69.52
2023-02-27T15:58:19.990Z,72.83
2023-02-27T16:01:08.641Z,76.18
2023-02-27T16:03:56.471Z,77.38
2023-02-27T16:06:42.060Z,80.54
2023-02-27T16:09:30.320Z,82.06
2023-02-27T16:12:23.721Z,82.51
2023-02-27T16:15:23.099Z,81.74
2023-02-27T16:18:29.321Z,82.53
2023-02-27T16:21:16.621Z,82.42
2023-02-27T16:24:21.610Z,81.94
2023-02-27T16:27:05.991Z,81.91
2023-02-27T16:29:49.927Z,80.81
2023-02-27T16:32:39.061Z,81.49
2023-02-27T16:35:24.790Z,81.54
2023-02-27T16:38:11.071Z,80.09
2023-02-27T16:40:55.139Z,78.62
2023-02-27T16:43:38.954Z,78.72
2023-02-27T16:46:23.756Z,77.65
2023-02-27T16:49:19.510Z,76.55
2023-02-27T16:52:06.010Z,76.96
2023-02-27T16:54:51.449Z,75.97
2023-02-27T16:57:35.299Z,76.93
2023-02-27T17:00:22.670Z,77.25
2023-02-27T17:03:06.512Z,76.66
2023-02-27T17:05:50.289Z,76.16
2023-02-27T17:08:34.168Z,76.13
2023-02-27T17:11:19.436Z,77.38
2023-02-27T17:14:03.236Z,76.58
2023-02-27T17:16:47.707Z,77.15
2023-02-27T17:19:31.662Z,76.87
2023-02-27T17:22:15.922Z,76.69
2023-02-27T17:24:59.767Z,78.27
2023-02-27T17:27:45.274Z,79.45
2023-02-27T17:30:29.232Z,82.39
2023-02-27T17:33:13.119Z,85.83
2023-02-27T17:36:03.186Z,87.65
2023-02-27T17:38:48.071Z,89.57
2023-02-27T17:41:33.003Z,89.95
2023-02-27T17:44:18.324Z,88.81
2023-02-27T17:47:02.225Z,89.36
2023-02-27T17:49:46.116Z,88.54
2023-02-27T17:52:29.898Z,87.76
2023-02-27T17:55:15.921Z,88.73
2023-02-27T17:57:59.742Z,89.88
2023-02-27T18:00:45.021Z,89.53
2023-02-27T18:03:28.832Z,87.66
2023-02-27T18:06:13.067Z,88.82
2023-02-27T18:08:56.847Z,89.62
2023-02-27T18:11:40.760Z,89.98
2023-02-27T18:14:24.889Z,90.20
2023-02-27T18:17:12.641Z,91.30
2023-02-27T18:19:58.042Z,91.35
2023-02-27T18:22:41.897Z,91.07
2023-02-27T18:25:26.331Z,90.12
2023-02-27T18:28:11.710Z,90.74
2023-02-27T18:30:55.771Z,91.31
2023-02-27T18:33:41.060Z,92.42
2023-02-27T18:36:24.981Z,92.86
2023-02-27T18:39:09.897Z,93.17
2023-02-27T18:41:53.853Z,92.35
2023-02-27T18:44:39.451Z,93.70
2023-02-27T18:47:23.511Z,94.22
2023-02-27T18:50:09.742Z,93.68
2023-02-27T18:52:54.317Z,93.21
2023-02-27T18:55:38.186Z,92.97
2023-02-27T18:58:22.250Z,93.33
2023-02-27T19:01:07.522Z,92.43
2023-02-27T19:03:51.866Z,92.81
2023-02-27T19:06:40.670Z,92.83
2023-02-27T19:09:30.831Z,93.33
2023-02-27T19:12:14.699Z,92.16
2023-02-27T19:14:58.739Z,93.10
2023-02-27T19:17:43.038Z,92.41
2023-02-27T19:20:26.981Z,92.09
2023-02-27T19:23:13.165Z,92.09
2023-02-27T19:25:59.837Z,91.93
2023-02-27T19:28:43.647Z,91.09
2023-02-27T19:31:28.744Z,90.17
2023-02-27T19:34:13.009Z,90.23
2023-02-27T19:36:56.864Z,90.38
2023-02-27T19:39:42.327Z,91.09
2023-02-27T19:42:26.397Z,89.94
2023-02-27T19:45:11.180Z,91.48
2023-02-27T19:47:55.074Z,91.80
2023-02-27T19:50:41.152Z,91.02
2023-02-27T19:53:26.303Z,90.85
2023-02-27T19:56:13.377Z,91.18
2023-02-27T19:58:57.825Z,90.59
2023-02-27T20:01:41.870Z,90.15
2023-02-27T20:04:25.783Z,90.87
2023-02-27T20:07:09.823Z,91.02
2023-02-27T20:09:53.604Z,90.60
2023-02-27T20:12:38.869Z,90.52
2023-02-27T20:15:22.758Z,90.85
2023-02-27T20:18:06.805Z,92.07
2023-02-27T20:21:00.140Z,91.74
2023-02-27T20:23:45.564Z,91.12
2023-02-27T20:26:32.158Z,90.59
2023-02-27T20:29:19.867Z,90.05
2023-02-27T20:32:04.173Z,89.53
2023-02-27T20:34:48.534Z,88.14
2023-02-27T20:37:35.470Z,87.73
2023-02-27T20:40:19.832Z,87.02
2023-02-27T20:43:04.428Z,86.34
2023-02-27T20:45:49.765Z,86.06
2023-02-27T20:48:34.153Z,85.80
2023-02-27T20:51:21.257Z,85.75
2023-02-27T20:54:07.858Z,86.48
2023-02-27T20:56:54.423Z,86.17
2023-02-27T20:59:38.198Z,85.76
2023-02-27T21:02:23.526Z,84.25
2023-02-27T21:05:08.586Z,85.33
2023-02-27T21:07:52.559Z,84.44
2023-02-27T21:10:39.781Z,83.96
2023-02-27T21:13:24.376Z,83.19
2023-02-27T21:16:10.728Z,83.62
2023-02-27T21:18:56.822Z,84.65
2023-02-27T21:21:40.645Z,83.79
2023-02-27T21:24:24.668Z,83.44
2023-02-27T21:27:08.539Z,83.49
2023-02-27T21:29:52.545Z,83.56
2023-02-27T21:32:36.328Z,83.74
2023-02-27T21:35:21.756Z,82.70
2023-02-27T21:38:05.846Z,83.32
2023-02-27T21:40:49.674Z,83.65
2023-02-27T21:43:33.398Z,84.98
2023-02-27T21:46:17.247Z,84.52
2023-02-27T21:49:01.803Z,85.31
2023-02-27T21:51:47.620Z,85.10
2023-02-27T21:54:31.723Z,85.60
2023-02-27T21:57:15.599Z,84.01
2023-02-27T21:59:59.443Z,84.71
2023-02-27T22:02:43.270Z,86.17
2023-02-27T22:05:27.102Z,87.24
2023-02-27T22:08:12.293Z,88.65
2023-02-27T22:10:58.266Z,89.64
2023-02-27T22:13:41.938Z,89.60
2023-02-27T22:16:25.844Z,89.57
2023-02-27T22:19:12.449Z,88.77
2023-02-27T22:21:56.156Z,88.12
2023-02-27T22:24:42.119Z,87.95
2023-02-27T22:27:25.960Z,87.40
2023-02-27T22:30:11.044Z,87.53
2023-02-27T22:32:55.231Z,89.04
2023-02-27T22:35:39.129Z,90.55
2023-02-27T22:38:22.994Z,92.35
2023-02-27T22:41:10.958Z,94.67
2023-02-27T22:43:55.050Z,95.92
2023-02-27T22:46:41.048Z,96.84
2023-02-27T22:49:25.204Z,96.25
2023-02-27T22:52:09.431Z,94.88
2023-02-27T22:54:53.584Z,95.73
2023-02-27T22:57:38.818Z,96.69
2023-02-27T23:00:22.865Z,95.74
2023-02-27T23:03:06.624Z,96.28
2023-02-27T23:05:51.429Z,95.28
2023-02-27T23:08:35.666Z,95.22
2023-02-27T23:11:20.499Z,94.96
2023-02-27T23:14:05.872Z,96.08
2023-02-27T23:16:50.850Z,94.79
2023-02-27T23:19:36.578Z,94.43
2023-02-27T23:22:20.547Z,94.64
2023-02-27T23:25:07.324Z,93.78
2023-02-27T23:27:51.298Z,94.61
2023-02-27T23:30:36.750Z,92.86
2023-02-27T23:33:20.595Z,94.04
2023-02-27T23:36:05.308Z,95.41
2023-02-27T23:38:49.229Z,94.51
2023-02-27T23:41:34.181Z,94.90
2023-02-27T23:44:18.075Z,94.29
2023-02-27T23:47:03.330Z,92.09
2023-02-27T23:49:47.226Z,93.93
2023-02-27T23:52:31.040Z,90.97
2023-02-27T23:55:15.392Z,92.17
2023-02-27T23:58:01.536Z,89.72
